Atar, Mauritania
Current Conditions -  °F | °C
As of 6:00 PM on Sunday 23 Nov 2014 (Local Time) from GQPA Reporting Station
Clear Clear  
Wind Chill: 79°   Ceiling: Unl
Heat Index: 79°   Visibility: 6mi
Dew Point: 46°   Wind: 0mph
Humidity: 32%   Direction: NA
Pressure: 29.97"   Gusts: NA
Location:  20.51°N, 13.05°W
Report Text: GQPA 231800Z 00000KT CAVOK 26/08 Q1015
Loading
Personal Weather Stations






























Interactive Weather Map New forecast layout! Learn more

10-Day Weather Forecast

Advertisements
Track Severe Weather on mobile